Pingliang, China
Current Conditions -  °F | °C
As of 2:00 PM on Sunday 26 Oct 2014 (Local Time) from ZLXY Reporting Station
Haze Haze  
Wind Chill: 77°   Ceiling: Unl
Heat Index: 78°   Visibility: 1.8mi
Dew Point: 54°   Wind: 2mph
Humidity: 44%   Direction: NA
Pressure: 30.06"   Gusts: NA
Location:  35.53°N, 106.68°E
Report Text: ZLXY 260600Z VRB01MPS 3000 HZ NSC 25/12 Q1018 NOSIG
Loading
Personal Weather Stations






























Interactive Weather Map
Tropical Storm Tracking
New forecast layout! Learn more

10-Day Weather Forecast

Advertisements
Track Severe Weather on mobile